createdAt,value
2018-05-31T00:01:16.872Z,10.07
2018-05-31T00:03:42.900Z,9.33
2018-05-31T00:06:08.930Z,9.73
2018-05-31T00:08:34.965Z,10.13
2018-05-31T00:11:00.989Z,10.73
2018-05-31T00:13:27.021Z,10.03
2018-05-31T00:15:53.046Z,9.60
2018-05-31T00:18:19.085Z,10.70
2018-05-31T00:20:45.894Z,10.33
2018-05-31T00:23:11.932Z,9.33
2018-05-31T00:25:37.965Z,10.97
2018-05-31T00:28:03.988Z,10.70
2018-05-31T00:30:30.014Z,9.13
2018-05-31T00:32:56.093Z,11.60
2018-05-31T00:35:22.121Z,11.07
2018-05-31T00:37:48.152Z,11.67
2018-05-31T00:40:14.177Z,11.10
2018-05-31T00:42:40.220Z,11.73
2018-05-31T00:45:06.249Z,10.73
2018-05-31T00:47:32.282Z,9.80
2018-05-31T00:49:58.317Z,9.67
2018-05-31T00:52:24.373Z,10.33
2018-05-31T00:54:50.463Z,12.13
2018-05-31T00:57:17.273Z,12.37
2018-05-31T00:59:43.303Z,12.10
2018-05-31T01:02:09.326Z,12.33
2018-05-31T01:04:35.349Z,12.73
2018-05-31T01:07:01.392Z,12.70
2018-05-31T01:09:27.425Z,14.97
2018-05-31T01:11:54.233Z,12.63
2018-05-31T01:14:20.243Z,11.53
2018-05-31T01:16:46.285Z,11.67
2018-05-31T01:19:12.330Z,11.77
2018-05-31T01:21:38.361Z,13.40
2018-05-31T01:24:04.400Z,12.87
2018-05-31T01:26:31.173Z,13.13
2018-05-31T01:28:57.222Z,12.33
2018-05-31T01:31:23.262Z,12.37
2018-05-31T01:33:49.295Z,13.90
2018-05-31T01:36:15.350Z,12.27
2018-05-31T01:38:41.382Z,12.00
2018-05-31T01:41:07.424Z,12.43
2018-05-31T01:43:33.480Z,12.20
2018-05-31T01:45:59.509Z,12.73
2018-05-31T01:48:25.529Z,12.57
2018-05-31T01:50:51.569Z,12.87
2018-05-31T01:53:17.597Z,12.80
2018-05-31T01:55:43.641Z,14.97
2018-05-31T01:58:09.680Z,17.07
2018-05-31T02:00:35.717Z,16.57
2018-05-31T02:03:01.813Z,15.17
2018-05-31T02:05:27.865Z,16.97
2018-05-31T02:07:53.922Z,17.10
2018-05-31T02:10:19.964Z,19.53
2018-05-31T02:12:46.001Z,14.87
2018-05-31T02:15:12.033Z,15.67
2018-05-31T02:17:38.072Z,15.47
2018-05-31T02:20:04.109Z,16.30
2018-05-31T02:22:30.152Z,15.53
2018-05-31T02:24:56.193Z,17.23
2018-05-31T02:27:22.225Z,14.67
2018-05-31T02:29:48.256Z,16.00
2018-05-31T02:32:14.289Z,13.37
2018-05-31T02:34:40.316Z,15.77
2018-05-31T02:37:06.351Z,16.47
2018-05-31T02:39:33.129Z,18.67
2018-05-31T02:41:59.160Z,16.20
2018-05-31T02:44:25.204Z,14.77
2018-05-31T02:46:51.233Z,14.30
2018-05-31T02:49:17.296Z,17.07
2018-05-31T02:51:43.333Z,16.50
2018-05-31T02:54:10.091Z,19.07
2018-05-31T02:56:36.117Z,20.17
2018-05-31T02:59:02.173Z,19.20
2018-05-31T03:01:28.213Z,16.90
2018-05-31T03:03:54.249Z,20.43
2018-05-31T03:06:20.313Z,22.03
2018-05-31T03:08:46.344Z,21.87
2018-05-31T03:11:12.362Z,21.83
2018-05-31T03:13:38.393Z,22.93
2018-05-31T03:16:04.424Z,24.43
2018-05-31T03:18:30.448Z,22.17
2018-05-31T03:20:56.486Z,23.40
2018-05-31T03:23:22.521Z,22.37
2018-05-31T03:25:48.537Z,23.63
2018-05-31T03:28:14.585Z,23.40
2018-05-31T03:30:40.616Z,24.17
2018-05-31T03:33:06.636Z,23.53
2018-05-31T03:35:32.672Z,23.57
2018-05-31T03:37:58.728Z,22.70
2018-05-31T03:40:24.772Z,20.83
2018-05-31T03:42:50.811Z,21.33
2018-05-31T03:45:16.855Z,21.23
2018-05-31T03:47:42.899Z,21.80
2018-05-31T03:50:09.672Z,20.83
2018-05-31T03:52:35.705Z,19.67
2018-05-31T03:55:01.777Z,19.67
2018-05-31T03:57:27.810Z,18.80
2018-05-31T03:59:53.828Z,17.70
2018-05-31T04:02:19.923Z,18.17
2018-05-31T04:04:45.952Z,16.97
2018-05-31T04:07:11.983Z,15.70
2018-05-31T04:09:38.789Z,14.63
2018-05-31T04:12:04.820Z,13.87
2018-05-31T04:14:30.864Z,13.07
2018-05-31T04:16:56.877Z,12.50
2018-05-31T04:19:22.910Z,12.33
2018-05-31T04:21:48.937Z,11.50
2018-05-31T04:24:14.962Z,11.23
2018-05-31T04:26:40.996Z,11.40
2018-05-31T04:29:07.034Z,10.80
2018-05-31T04:31:33.074Z,10.87
2018-05-31T04:33:59.093Z,10.10
2018-05-31T04:36:25.145Z,10.67
2018-05-31T04:38:51.181Z,10.30
2018-05-31T04:41:17.241Z,9.83
2018-05-31T04:43:43.284Z,10.50
2018-05-31T04:46:09.314Z,10.40
2018-05-31T04:48:35.354Z,9.60
2018-05-31T04:51:02.143Z,8.63
2018-05-31T04:53:28.206Z,8.37
2018-05-31T04:55:54.230Z,7.27
2018-05-31T04:58:20.305Z,7.40
2018-05-31T05:00:46.344Z,7.70
2018-05-31T05:03:12.369Z,7.37
2018-05-31T05:05:38.405Z,7.13
2018-05-31T05:08:04.437Z,6.53
2018-05-31T05:10:30.477Z,6.13
2018-05-31T05:12:56.536Z,5.70
2018-05-31T05:15:22.571Z,5.23
2018-05-31T05:17:48.617Z,5.23
2018-05-31T05:20:14.680Z,5.63
2018-05-31T05:22:41.460Z,5.30
2018-05-31T05:25:07.504Z,5.17
2018-05-31T05:27:33.540Z,5.17
2018-05-31T05:29:59.582Z,5.30
2018-05-31T05:32:25.677Z,5.13
2018-05-31T05:34:51.669Z,4.90
2018-05-31T05:37:17.709Z,4.73
2018-05-31T05:39:43.758Z,4.27
2018-05-31T05:42:09.773Z,4.17
2018-05-31T05:44:35.820Z,4.50
2018-05-31T05:47:01.845Z,5.10
2018-05-31T05:49:27.869Z,4.40
2018-05-31T05:51:53.922Z,4.37
2018-05-31T05:54:19.969Z,4.87
2018-05-31T05:56:45.997Z,4.20
2018-05-31T05:59:12.021Z,4.10
2018-05-31T06:01:38.068Z,4.10
2018-05-31T06:04:04.108Z,4.23
2018-05-31T06:06:30.148Z,3.70
2018-05-31T06:08:56.189Z,3.60
2018-05-31T06:11:22.234Z,3.43
2018-05-31T06:13:49.016Z,3.47
2018-05-31T06:16:15.053Z,3.63
2018-05-31T06:18:41.101Z,3.70
2018-05-31T06:21:07.136Z,3.83
2018-05-31T06:23:33.916Z,3.80
2018-05-31T06:25:59.946Z,3.57
2018-05-31T06:28:25.989Z,3.67
2018-05-31T06:30:52.042Z,4.07
2018-05-31T06:33:18.889Z,3.73
2018-05-31T06:35:44.929Z,3.77
2018-05-31T06:38:11.704Z,3.63
2018-05-31T06:40:37.741Z,4.27
2018-05-31T06:43:03.769Z,3.73
2018-05-31T06:45:29.797Z,3.63
2018-05-31T06:47:55.848Z,3.17
2018-05-31T06:50:21.882Z,3.33
2018-05-31T06:52:48.673Z,3.07
2018-05-31T06:55:14.731Z,2.80
2018-05-31T06:57:40.784Z,2.47
2018-05-31T07:00:06.830Z,2.37
2018-05-31T07:02:32.869Z,2.20
2018-05-31T07:04:58.897Z,2.30
2018-05-31T07:07:24.929Z,2.30
2018-05-31T07:09:50.965Z,2.13
2018-05-31T07:12:16.989Z,2.57
2018-05-31T07:14:43.013Z,2.60
2018-05-31T07:17:09.063Z,2.13
2018-05-31T07:19:35.093Z,2.83
2018-05-31T07:22:01.150Z,2.50
2018-05-31T07:24:27.189Z,2.70
2018-05-31T07:26:53.216Z,2.70
2018-05-31T07:29:19.253Z,2.93
2018-05-31T07:31:45.298Z,2.83
2018-05-31T07:34:11.332Z,3.20
2018-05-31T07:36:37.362Z,3.23
2018-05-31T07:39:03.390Z,3.77
2018-05-31T07:41:29.408Z,3.60
2018-05-31T07:43:56.187Z,5.10
2018-05-31T07:46:22.225Z,4.80
2018-05-31T07:48:48.244Z,5.23
2018-05-31T07:51:14.319Z,4.30
2018-05-31T07:53:40.346Z,4.83
2018-05-31T07:56:06.369Z,4.37
2018-05-31T07:58:32.393Z,4.17
2018-05-31T08:00:58.416Z,4.07
2018-05-31T08:03:24.441Z,4.30
2018-05-31T08:05:50.472Z,4.23
2018-05-31T08:08:16.485Z,4.63
2018-05-31T08:10:42.515Z,5.43
2018-05-31T08:13:08.533Z,4.77
2018-05-31T08:15:34.558Z,4.87
2018-05-31T08:18:00.577Z,4.90
2018-05-31T08:20:26.589Z,4.57
2018-05-31T08:22:52.613Z,4.63
2018-05-31T08:25:19.373Z,4.27
2018-05-31T08:27:45.397Z,4.73
2018-05-31T08:30:13.154Z,5.30
2018-05-31T08:32:39.284Z,5.30
2018-05-31T08:35:05.313Z,5.30
2018-05-31T08:37:31.333Z,5.13
2018-05-31T08:39:57.353Z,5.83
2018-05-31T08:42:23.375Z,4.47
2018-05-31T08:44:49.402Z,5.10
2018-05-31T08:47:15.425Z,5.37
2018-05-31T08:49:41.449Z,5.00
2018-05-31T08:52:07.477Z,4.97
2018-05-31T08:54:33.496Z,5.03
2018-05-31T08:56:59.518Z,4.93
2018-05-31T08:59:25.634Z,4.77
2018-05-31T09:01:51.632Z,5.10
2018-05-31T09:04:17.703Z,5.20
2018-05-31T09:06:43.680Z,4.80
2018-05-31T09:09:09.710Z,5.47
2018-05-31T09:11:35.731Z,5.87
2018-05-31T09:14:01.782Z,5.83
2018-05-31T09:16:27.804Z,6.30
2018-05-31T09:18:53.817Z,6.57
2018-05-31T09:21:19.846Z,6.37
2018-05-31T09:23:45.876Z,6.63
2018-05-31T09:26:11.896Z,6.80
2018-05-31T09:28:37.996Z,6.60
2018-05-31T09:31:04.045Z,5.73
2018-05-31T09:33:30.093Z,7.43
2018-05-31T09:35:56.120Z,7.27
2018-05-31T09:38:22.128Z,6.60
2018-05-31T09:40:48.148Z,7.73
2018-05-31T09:43:14.162Z,7.63
2018-05-31T09:45:40.186Z,7.63
2018-05-31T09:48:06.204Z,6.93
2018-05-31T09:50:32.230Z,7.77
2018-05-31T09:52:58.261Z,7.53
2018-05-31T09:55:24.282Z,7.40
2018-05-31T09:57:50.308Z,7.47
2018-05-31T10:00:16.341Z,8.70
2018-05-31T10:02:42.385Z,8.33
2018-05-31T10:05:08.409Z,8.50
2018-05-31T10:07:34.440Z,7.87
2018-05-31T10:10:00.455Z,8.10
2018-05-31T10:12:26.469Z,8.03
2018-05-31T10:14:52.490Z,8.20
2018-05-31T10:17:18.513Z,8.07
2018-05-31T10:19:44.524Z,7.70
2018-05-31T10:22:10.545Z,9.23
2018-05-31T10:24:36.590Z,8.80
2018-05-31T10:27:02.609Z,9.33
2018-05-31T10:29:28.637Z,9.20
2018-05-31T10:31:54.661Z,9.40
2018-05-31T10:34:20.685Z,9.50
2018-05-31T10:36:46.710Z,10.13
2018-05-31T10:39:12.748Z,10.00
2018-05-31T10:41:38.769Z,10.10
2018-05-31T10:44:04.795Z,9.53
2018-05-31T10:46:30.882Z,10.40
2018-05-31T10:48:56.849Z,11.17
2018-05-31T10:51:22.872Z,10.13
2018-05-31T10:53:48.962Z,9.63
2018-05-31T10:56:14.952Z,11.17
2018-05-31T10:58:40.989Z,9.63
2018-05-31T11:01:07.012Z,9.50
2018-05-31T11:03:33.049Z,8.37
2018-05-31T11:05:59.077Z,8.53
2018-05-31T11:08:25.124Z,8.77
2018-05-31T11:10:51.143Z,9.83
2018-05-31T11:13:17.162Z,9.53
2018-05-31T11:15:43.193Z,9.50
2018-05-31T11:18:09.217Z,10.03
2018-05-31T11:20:35.232Z,9.47
2018-05-31T11:23:01.265Z,10.43
2018-05-31T11:25:27.284Z,8.57
2018-05-31T11:27:53.309Z,8.00
2018-05-31T11:30:19.326Z,8.37
2018-05-31T11:32:45.365Z,7.83
2018-05-31T11:35:11.385Z,9.30
2018-05-31T11:37:37.409Z,10.07
2018-05-31T11:40:03.425Z,8.80
2018-05-31T11:42:29.445Z,9.90
2018-05-31T11:44:55.466Z,9.43
2018-05-31T11:47:21.493Z,9.13
2018-05-31T11:49:47.526Z,10.03
2018-05-31T11:52:13.542Z,9.27
2018-05-31T11:54:39.568Z,10.03
2018-05-31T11:57:05.609Z,9.60
2018-05-31T11:59:31.633Z,9.93
2018-05-31T12:01:57.666Z,10.83
2018-05-31T12:04:24.441Z,11.73
2018-05-31T12:06:50.458Z,11.70
2018-05-31T12:09:16.531Z,12.13
2018-05-31T12:11:42.556Z,12.43
2018-05-31T12:14:08.586Z,13.20
2018-05-31T12:16:34.605Z,13.80
2018-05-31T12:19:00.637Z,14.23
2018-05-31T12:21:27.445Z,14.03
2018-05-31T12:23:53.490Z,13.80
2018-05-31T12:26:19.519Z,12.87
2018-05-31T12:28:45.560Z,13.33
2018-05-31T12:31:11.601Z,14.00
2018-05-31T12:33:37.618Z,14.20
2018-05-31T12:36:03.657Z,13.63
2018-05-31T12:38:29.706Z,12.60
2018-05-31T12:40:56.474Z,13.43
2018-05-31T12:43:22.527Z,12.60
2018-05-31T12:45:48.559Z,12.77
2018-05-31T12:48:14.589Z,12.77
2018-05-31T12:50:40.625Z,12.57
2018-05-31T12:53:06.649Z,12.13
2018-05-31T12:55:32.672Z,12.33
2018-05-31T12:57:58.701Z,13.83
2018-05-31T13:00:25.485Z,13.77
2018-05-31T13:02:51.496Z,13.67
2018-05-31T13:05:17.525Z,14.27
2018-05-31T13:07:43.557Z,12.03
2018-05-31T13:10:09.593Z,11.83
2018-05-31T13:12:35.628Z,11.97
2018-05-31T13:15:01.668Z,11.77
2018-05-31T13:17:27.701Z,11.87
2018-05-31T13:19:53.730Z,10.60
2018-05-31T13:22:19.760Z,11.23
2018-05-31T13:24:45.812Z,10.63
2018-05-31T13:27:11.824Z,11.33
2018-05-31T13:29:38.581Z,11.00
2018-05-31T13:32:04.631Z,9.70
2018-05-31T13:34:30.649Z,10.70
2018-05-31T13:36:56.672Z,11.50
2018-05-31T13:39:22.692Z,12.03
2018-05-31T13:41:50.161Z,12.35
2018-05-31T13:44:16.221Z,13.17
2018-05-31T13:46:42.253Z,10.50
2018-05-31T13:49:08.276Z,13.60
2018-05-31T13:51:34.309Z,12.17
2018-05-31T13:54:00.330Z,11.57
2018-05-31T13:56:27.106Z,10.90
2018-05-31T13:58:53.130Z,11.97
2018-05-31T14:01:19.172Z,12.23
2018-05-31T14:03:45.216Z,13.37
2018-05-31T14:06:11.244Z,11.63
2018-05-31T14:08:38.018Z,12.27
2018-05-31T14:11:04.045Z,14.13
2018-05-31T14:13:30.068Z,13.77
2018-05-31T14:15:56.123Z,13.20
2018-05-31T14:18:22.148Z,12.00
2018-05-31T14:20:48.177Z,12.03
2018-05-31T14:23:14.202Z,12.57
2018-05-31T14:25:40.245Z,11.50
2018-05-31T14:28:06.274Z,9.20
2018-05-31T14:30:32.317Z,8.97
2018-05-31T14:32:58.335Z,8.60
2018-05-31T14:35:24.363Z,11.47
2018-05-31T14:37:50.384Z,8.60
2018-05-31T14:40:16.407Z,8.17
2018-05-31T14:42:42.433Z,8.07
2018-05-31T14:45:08.469Z,9.90
2018-05-31T14:47:34.494Z,7.90
2018-05-31T14:50:00.524Z,10.40
2018-05-31T14:52:27.302Z,9.80
2018-05-31T14:54:53.336Z,11.33
2018-05-31T14:57:19.365Z,11.00
2018-05-31T14:59:45.402Z,8.20
2018-05-31T15:02:11.420Z,8.47
2018-05-31T15:04:37.451Z,8.03
2018-05-31T15:07:03.463Z,8.03
2018-05-31T15:09:29.518Z,7.20
2018-05-31T15:11:55.546Z,9.10
2018-05-31T15:14:21.571Z,9.87
2018-05-31T15:16:47.621Z,8.57
2018-05-31T15:19:13.661Z,6.83
2018-05-31T15:21:39.680Z,6.93
2018-05-31T15:24:06.433Z,7.30
2018-05-31T15:26:32.460Z,8.40
2018-05-31T15:28:58.485Z,7.83
2018-05-31T15:31:24.508Z,7.87
2018-05-31T15:33:50.544Z,7.20
2018-05-31T15:36:16.580Z,6.73
2018-05-31T15:38:42.613Z,6.30
2018-05-31T15:41:08.637Z,7.40
2018-05-31T15:43:34.648Z,8.40
2018-05-31T15:46:00.665Z,8.20
2018-05-31T15:48:26.689Z,7.87
2018-05-31T15:50:52.729Z,6.80
2018-05-31T15:53:18.756Z,7.27
2018-05-31T15:55:44.769Z,7.27
2018-05-31T15:58:10.797Z,8.17
2018-05-31T16:00:36.835Z,8.80
2018-05-31T16:03:02.856Z,10.97
2018-05-31T16:05:28.916Z,10.97
2018-05-31T16:07:54.934Z,13.40
2018-05-31T16:10:20.974Z,12.27
2018-05-31T16:12:47.745Z,11.90
2018-05-31T16:15:13.773Z,11.07
2018-05-31T16:17:39.797Z,11.37
2018-05-31T16:20:05.808Z,10.40
2018-05-31T16:22:31.832Z,17.53
2018-05-31T16:24:57.865Z,24.77
2018-05-31T16:27:23.900Z,29.70
2018-05-31T16:29:49.934Z,42.50
2018-05-31T16:32:15.997Z,33.43
2018-05-31T16:34:42.025Z,42.40
2018-05-31T16:37:08.037Z,44.43
2018-05-31T16:39:34.056Z,40.60
2018-05-31T16:42:00.079Z,45.17
2018-05-31T16:44:26.120Z,44.77
2018-05-31T16:46:52.141Z,50.03
2018-05-31T16:49:18.181Z,44.50
2018-05-31T16:51:44.957Z,49.73
2018-05-31T16:54:10.982Z,48.77
2018-05-31T16:56:37.005Z,45.40
2018-05-31T16:59:03.052Z,45.10
2018-05-31T17:01:29.093Z,47.00
2018-05-31T17:03:55.121Z,45.17
2018-05-31T17:06:21.144Z,43.43
2018-05-31T17:08:47.181Z,42.97
2018-05-31T17:11:13.217Z,38.03
2018-05-31T17:13:39.235Z,40.73
2018-05-31T17:16:05.253Z,39.97
2018-05-31T17:18:31.276Z,40.23
2018-05-31T17:20:57.301Z,45.03
2018-05-31T17:23:23.312Z,41.63
2018-05-31T17:25:49.321Z,39.30
2018-05-31T17:28:15.358Z,38.00
2018-05-31T17:30:41.379Z,40.57
2018-05-31T17:33:07.396Z,40.90
2018-05-31T17:35:33.465Z,40.87
2018-05-31T17:37:59.470Z,39.57
2018-05-31T17:40:25.470Z,39.00
2018-05-31T17:42:51.486Z,41.67
2018-05-31T17:45:17.510Z,44.87
2018-05-31T17:47:43.537Z,45.80
2018-05-31T17:50:09.565Z,41.17
2018-05-31T17:52:35.585Z,42.90
2018-05-31T17:55:01.597Z,39.57
2018-05-31T17:57:27.617Z,43.37
2018-05-31T17:59:53.638Z,38.17
2018-05-31T18:02:19.657Z,38.20
2018-05-31T18:04:45.668Z,38.67
2018-05-31T18:07:11.685Z,39.77
2018-05-31T18:09:37.716Z,38.90
2018-05-31T18:12:03.717Z,42.77
2018-05-31T18:14:29.782Z,45.70
2018-05-31T18:16:55.795Z,44.87
2018-05-31T18:19:21.825Z,45.67
2018-05-31T18:21:47.865Z,45.93
2018-05-31T18:24:13.927Z,46.97
2018-05-31T18:26:39.945Z,41.47
2018-05-31T18:29:05.970Z,44.53
2018-05-31T18:31:31.990Z,40.37
2018-05-31T18:33:58.010Z,38.93
2018-05-31T18:36:24.042Z,37.13
2018-05-31T18:38:50.073Z,37.27
2018-05-31T18:41:16.077Z,38.50
2018-05-31T18:43:42.079Z,39.60
2018-05-31T18:46:08.114Z,38.70
2018-05-31T18:48:34.125Z,37.60
2018-05-31T18:51:00.156Z,36.63
2018-05-31T18:53:26.170Z,40.17
2018-05-31T18:55:52.197Z,36.70
2018-05-31T18:58:18.217Z,40.17
2018-05-31T19:00:44.256Z,44.63
2018-05-31T19:03:10.280Z,41.33
2018-05-31T19:05:36.354Z,37.53
2018-05-31T19:08:03.129Z,38.67
2018-05-31T19:10:29.153Z,38.33
2018-05-31T19:13:01.266Z,41.93
2018-05-31T19:15:27.299Z,42.27
2018-05-31T19:17:53.325Z,44.20
2018-05-31T19:20:19.345Z,45.83
2018-05-31T19:22:45.368Z,40.10
2018-05-31T19:25:17.445Z,45.27
2018-05-31T19:27:43.465Z,42.77
2018-05-31T19:30:15.582Z,41.47
2018-05-31T19:32:41.650Z,38.73
2018-05-31T19:35:13.697Z,40.40
2018-05-31T19:37:39.704Z,42.13
2018-05-31T19:40:05.751Z,41.70
2018-05-31T19:42:37.913Z,48.00
2018-05-31T19:45:03.957Z,43.03
2018-05-31T19:47:29.972Z,45.07
2018-05-31T19:49:55.988Z,43.03
2018-05-31T19:52:28.184Z,43.83
2018-05-31T19:54:54.213Z,43.80
2018-05-31T19:57:20.246Z,49.10
2018-05-31T19:59:52.368Z,51.60
2018-05-31T20:02:24.609Z,50.10
2018-05-31T20:04:50.622Z,49.83
2018-05-31T20:07:16.644Z,49.17
2018-05-31T20:09:42.678Z,45.53
2018-05-31T20:12:08.689Z,44.10
2018-05-31T20:14:34.725Z,45.97
2018-05-31T20:17:00.745Z,47.87
2018-05-31T20:19:26.749Z,52.40
2018-05-31T20:21:52.757Z,43.73
2018-05-31T20:24:18.781Z,44.57
2018-05-31T20:26:44.805Z,43.73
2018-05-31T20:29:10.805Z,43.07
2018-05-31T20:31:36.868Z,50.37
2018-05-31T20:34:02.876Z,44.33
2018-05-31T20:36:28.881Z,46.00
2018-05-31T20:38:54.897Z,46.10
2018-05-31T20:41:20.912Z,47.10
2018-05-31T20:43:46.941Z,48.97
2018-05-31T20:46:12.945Z,48.83
2018-05-31T20:48:38.957Z,43.73
2018-05-31T20:51:05.739Z,43.23
2018-05-31T20:53:31.745Z,48.23
2018-05-31T20:55:57.821Z,46.73
2018-05-31T20:58:23.845Z,45.50
2018-05-31T21:00:49.850Z,46.10
2018-05-31T21:03:15.875Z,48.20
2018-05-31T21:05:41.912Z,50.83
2018-05-31T21:08:07.945Z,47.40
2018-05-31T21:10:33.956Z,55.23
2018-05-31T21:12:59.953Z,52.47
2018-05-31T21:15:26.013Z,50.60
2018-05-31T21:17:52.069Z,48.67
2018-05-31T21:20:18.114Z,44.20
2018-05-31T21:22:44.174Z,54.70
2018-05-31T21:25:10.184Z,50.20
2018-05-31T21:27:36.196Z,42.77
2018-05-31T21:30:02.209Z,52.70
2018-05-31T21:32:28.237Z,43.27
2018-05-31T21:34:54.258Z,47.37
2018-05-31T21:37:20.281Z,48.10
2018-05-31T21:39:46.316Z,48.47
2018-05-31T21:42:12.341Z,45.40
2018-05-31T21:44:38.366Z,44.93
2018-05-31T21:47:04.400Z,43.37
2018-05-31T21:49:30.418Z,40.60
2018-05-31T21:51:56.432Z,43.80
2018-05-31T21:54:22.440Z,45.10
2018-05-31T21:56:48.527Z,38.23
2018-05-31T21:59:14.540Z,42.40
2018-05-31T22:01:40.569Z,46.90
2018-05-31T22:04:06.589Z,45.50
2018-05-31T22:06:32.608Z,49.47
2018-05-31T22:08:58.622Z,46.57
2018-05-31T22:11:24.652Z,45.07
2018-05-31T22:13:50.674Z,44.73
2018-05-31T22:16:16.692Z,49.43
2018-05-31T22:18:42.727Z,47.57
2018-05-31T22:21:08.754Z,40.60
2018-05-31T22:23:34.769Z,44.00
2018-05-31T22:26:00.794Z,43.67
2018-05-31T22:28:26.817Z,44.10
2018-05-31T22:30:52.837Z,44.80
2018-05-31T22:33:18.849Z,38.17
2018-05-31T22:35:44.884Z,39.10
2018-05-31T22:38:10.938Z,35.90
2018-05-31T22:40:36.952Z,46.03
2018-05-31T22:43:02.960Z,39.67
2018-05-31T22:45:28.989Z,43.00
2018-05-31T22:47:55.016Z,35.27
2018-05-31T22:50:21.030Z,36.47
2018-05-31T22:52:47.057Z,36.07
2018-05-31T22:55:13.058Z,40.63
2018-05-31T22:57:39.069Z,41.27
2018-05-31T23:00:05.090Z,37.20
2018-05-31T23:02:31.121Z,37.83
2018-05-31T23:04:57.140Z,38.67
2018-05-31T23:07:23.160Z,36.53
2018-05-31T23:09:49.173Z,40.80
2018-05-31T23:12:15.937Z,43.33
2018-05-31T23:14:41.949Z,39.83
2018-05-31T23:17:07.977Z,30.37
2018-05-31T23:19:33.969Z,30.53
2018-05-31T23:21:59.980Z,35.77
2018-05-31T23:24:25.989Z,30.93
2018-05-31T23:26:52.017Z,34.77
2018-05-31T23:29:18.032Z,40.67
2018-05-31T23:31:44.045Z,32.97
2018-05-31T23:34:10.065Z,30.77
2018-05-31T23:36:36.073Z,32.17
2018-05-31T23:39:02.128Z,35.43
2018-05-31T23:41:28.132Z,32.07
2018-05-31T23:43:54.146Z,32.73
2018-05-31T23:46:20.204Z,29.40
2018-05-31T23:48:46.221Z,30.20
2018-05-31T23:51:12.249Z,40.43
2018-05-31T23:53:38.308Z,36.77
2018-05-31T23:56:04.320Z,38.13
2018-05-31T23:58:30.327Z,33.27
